Time;durP1;ratioP1;P1;durP2;ratioP2;P2;SDS_P1;SDS_P2;PMS_P1;PMS_P2;Temp;Humidity;BMP_temperature;BMP_pressure;BME280_temperature;BME280_humidity;BME280_pressure;Samples;Min_cycle;Max_cycle;Signal;HPM_P1;HPM_P2
2022/06/04 00:01:59;;;;;;;15.48;8.93;;;23.20;78.50;;;;;;1905307;75;21539;-58
2022/06/04 00:04:28;;;;;;;17.30;9.88;;;23.20;78.50;;;;;;1905509;75;21427;-58
2022/06/04 00:06:58;;;;;;;16.95;9.15;;;23.20;78.20;;;;;;1905475;75;21043;-58
2022/06/04 00:09:28;;;;;;;17.50;10.18;;;23.10;77.90;;;;;;1905405;75;21058;-58
2022/06/04 00:17:32;;;;;;;13.55;8.13;;;22.90;78.30;;;;;;1905493;75;21161;-58
2022/06/04 00:20:02;;;;;;;14.90;8.38;;;22.90;78.60;;;;;;1905525;75;21019;-58
2022/06/04 00:22:31;;;;;;;26.62;9.60;;;22.80;78.60;;;;;;1905343;75;21089;-58
2022/06/04 00:25:00;;;;;;;14.73;7.45;;;22.90;78.60;;;;;;1905442;74;21085;-58
2022/06/04 00:27:29;;;;;;;13.53;8.03;;;22.90;78.60;;;;;;1905395;75;21527;-58
2022/06/04 00:29:58;;;;;;;12.28;7.40;;;22.80;78.60;;;;;;1905369;75;21470;-58
2022/06/04 00:32:27;;;;;;;13.65;7.60;;;22.80;78.60;;;;;;1905494;74;21078;-58
2022/06/04 00:34:56;;;;;;;11.55;7.00;;;22.80;78.70;;;;;;1905491;75;21412;-58
2022/06/04 00:37:25;;;;;;;11.35;7.37;;;22.70;78.70;;;;;;1905349;74;20996;-58
2022/06/04 00:39:56;;;;;;;12.60;7.17;;;22.70;78.90;;;;;;1905475;75;21081;-58
2022/06/04 00:42:25;;;;;;;15.63;7.97;;;22.70;79.30;;;;;;1905334;74;21097;-58
2022/06/04 00:45:23;;;;;;;10.60;6.83;;;22.70;79.30;;;;;;1905370;75;21003;-58
2022/06/04 00:47:52;;;;;;;12.13;6.90;;;22.80;79.40;;;;;;1905350;75;21011;-58
2022/06/04 00:50:23;;;;;;;12.73;7.42;;;22.80;79.20;;;;;;1905357;75;21093;-58
2022/06/04 00:52:53;;;;;;;12.10;7.17;;;22.80;79.70;;;;;;1905425;75;21039;-58
2022/06/04 00:55:23;;;;;;;10.93;7.97;;;22.80;79.10;;;;;;1905405;75;21019;-58
2022/06/04 00:58:04;;;;;;;12.35;7.70;;;22.80;79.10;;;;;;1905487;75;21023;-58
2022/06/04 01:00:38;;;;;;;9.23;6.92;;;22.80;79.00;;;;;;1905133;74;21039;-58
2022/06/04 01:03:25;;;;;;;13.28;7.70;;;22.70;78.90;;;;;;1905491;75;21136;-58
2022/06/04 01:06:03;;;;;;;13.25;8.15;;;22.70;78.90;;;;;;1904314;74;21043;-58
2022/06/04 01:08:52;;;;;;;14.47;8.10;;;22.70;79.20;;;;;;1905293;74;21043;-58
2022/06/04 01:11:33;;;;;;;10.63;7.37;;;22.70;79.30;;;;;;1905358;75;21097;-58
2022/06/04 01:14:13;;;;;;;11.57;7.28;;;22.70;79.30;;;;;;1913075;74;21086;-58
2022/06/04 01:16:48;;;;;;;19.10;8.75;;;22.70;79.50;;;;;;1924409;74;21058;-58
2022/06/04 01:19:35;;;;;;;19.42;9.08;;;22.70;79.30;;;;;;1924486;74;21023;-58
2022/06/04 01:22:09;;;;;;;18.75;9.78;;;22.70;78.90;;;;;;1924654;74;21014;-58
2022/06/04 01:24:57;;;;;;;13.85;8.85;;;22.70;78.70;;;;;;1923731;74;20999;-58
2022/06/04 01:27:46;;;;;;;14.90;7.92;;;22.60;78.70;;;;;;1924682;74;21470;-58
2022/06/04 01:30:24;;;;;;;17.35;9.85;;;22.60;78.90;;;;;;1924651;74;21100;-58
2022/06/04 01:32:55;;;;;;;13.62;8.98;;;22.60;78.90;;;;;;1924590;74;21023;-58
2022/06/04 01:35:36;;;;;;;16.93;11.08;;;22.60;78.90;;;;;;1924662;74;21034;-58
2022/06/04 01:38:07;;;;;;;16.17;8.60;;;22.50;78.90;;;;;;1924500;74;21100;-58
2022/06/04 01:41:03;;;;;;;13.43;9.23;;;22.50;78.90;;;;;;1921717;74;21104;-58
2022/06/04 01:43:38;;;;;;;14.68;9.18;;;22.50;79.00;;;;;;1924763;74;21015;-58
2022/06/04 01:46:19;;;;;;;15.43;8.83;;;22.40;78.90;;;;;;1924712;74;21031;-58
2022/06/04 01:48:51;;;;;;;12.07;8.25;;;22.30;79.10;;;;;;1921463;74;21136;-58
2022/06/04 01:51:22;;;;;;;12.20;7.87;;;22.30;79.30;;;;;;1924873;74;21015;-58
2022/06/04 01:53:54;;;;;;;17.35;7.60;;;22.20;79.20;;;;;;1924802;74;21025;-58
2022/06/04 01:56:28;;;;;;;22.15;9.00;;;22.20;79.30;;;;;;1924842;74;20995;-58
2022/06/04 01:59:00;;;;;;;12.40;8.05;;;22.20;79.50;;;;;;1925075;74;20991;-58
2022/06/04 02:01:32;;;;;;;13.60;7.97;;;22.20;79.50;;;;;;1924887;74;21478;-58
2022/06/04 02:04:09;;;;;;;10.55;8.05;;;22.20;79.30;;;;;;1924834;74;21026;-58
2022/06/04 02:07:29;;;;;;;14.47;8.08;;;22.20;80.50;;;;;;1924174;74;21089;-58
2022/06/04 02:09:21;;;;;;;12.30;7.33;;;22.20;79.90;;;;;;1921661;74;21043;-58
2022/06/04 02:11:52;;;;;;;16.02;7.33;;;22.20;79.80;;;;;;1924743;74;21027;-58
2022/06/04 02:14:22;;;;;;;12.65;7.10;;;22.20;80.50;;;;;;1918366;74;21043;-58
2022/06/04 02:16:57;;;;;;;16.27;8.25;;;22.30;80.10;;;;;;1905434;75;21043;-58
2022/06/04 02:19:26;;;;;;;11.50;8.73;;;22.30;80.10;;;;;;1905370;74;21043;-59
2022/06/04 02:21:56;;;;;;;13.40;7.72;;;22.30;79.90;;;;;;1905297;75;21446;-59
2022/06/04 02:24:25;;;;;;;17.52;7.92;;;22.40;79.80;;;;;;1905345;74;21000;-59
2022/06/04 02:26:54;;;;;;;15.32;8.55;;;22.40;79.70;;;;;;1905422;75;21031;-59
2022/06/04 02:29:23;;;;;;;15.03;7.62;;;22.40;79.40;;;;;;1905379;74;21015;-59
2022/06/04 02:32:03;;;;;;;14.33;8.00;;;22.40;79.30;;;;;;1905390;75;21020;-59
2022/06/04 02:34:57;;;;;;;14.43;7.40;;;22.40;79.60;;;;;;1905266;74;21101;-59
2022/06/04 02:37:31;;;;;;;16.15;7.85;;;22.40;79.50;;;;;;1888664;75;21035;-59
2022/06/04 02:40:09;;;;;;;11.05;7.03;;;22.40;79.30;;;;;;1905438;74;21090;-59
2022/06/04 02:42:50;;;;;;;12.25;7.47;;;22.40;79.20;;;;;;1905464;75;21160;-59
2022/06/04 02:45:27;;;;;;;11.63;6.78;;;22.50;79.20;;;;;;1878904;75;21027;-59
2022/06/04 02:48:02;;;;;;;10.85;6.62;;;22.50;79.40;;;;;;1905273;74;21113;-59
2022/06/04 02:50:34;;;;;;;13.10;7.03;;;22.50;79.30;;;;;;1904712;74;21051;-59
2022/06/04 02:53:06;;;;;;;14.05;7.08;;;22.60;79.20;;;;;;1904434;74;21430;-59
2022/06/04 02:55:37;;;;;;;14.28;7.42;;;22.70;79.30;;;;;;1905355;75;21082;-59
2022/06/04 02:58:12;;;;;;;12.63;7.65;;;22.70;78.30;;;;;;1905378;75;21497;-59
2022/06/04 03:00:41;;;;;;;;;;;22.70;78.40;;;;;;1908067;74;21098;-59
2022/06/04 03:03:12;;;;;;;13.10;6.90;;;22.70;79.00;;;;;;1905387;75;20135;-59
2022/06/04 03:05:53;;;;;;;18.70;6.60;;;22.70;78.50;;;;;;1905332;74;21019;-59
2022/06/04 03:08:23;;;;;;;9.35;6.37;;;22.80;78.30;;;;;;1905332;75;21058;-59
2022/06/04 03:10:52;;;;;;;17.50;7.53;;;22.80;78.20;;;;;;1868852;77;21077;-59
2022/06/04 03:13:22;;;;;;;13.48;6.28;;;22.90;78.10;;;;;;1905312;75;21019;-59
2022/06/04 03:15:51;;;;;;;12.68;7.10;;;22.90;78.10;;;;;;1905171;74;21064;-59
2022/06/04 03:18:20;;;;;;;9.53;6.75;;;23.00;77.80;;;;;;1905315;75;21043;-59
2022/06/04 03:20:49;;;;;;;13.30;7.17;;;23.00;77.60;;;;;;1868873;77;21003;-59
2022/06/04 03:23:18;;;;;;;17.42;7.05;;;23.00;77.10;;;;;;1905296;74;21493;-59
2022/06/04 03:25:47;;;;;;;13.88;7.08;;;23.00;77.10;;;;;;1905389;75;21106;-58
2022/06/04 03:28:16;;;;;;;16.00;6.87;;;23.00;77.20;;;;;;1905376;74;21442;-59
2022/06/04 03:30:46;;;;;;;18.23;7.30;;;22.90;78.10;;;;;;1905275;74;21023;-59
2022/06/04 03:33:15;;;;;;;19.75;7.03;;;22.90;77.90;;;;;;1905420;74;21090;-58
2022/06/04 03:35:45;;;;;;;14.20;7.90;;;23.00;78.00;;;;;;1905255;75;21012;-58
2022/06/04 03:38:14;;;;;;;12.47;6.67;;;23.00;78.10;;;;;;1905313;75;20996;-59
2022/06/04 03:40:43;;;;;;;14.28;7.35;;;23.10;78.00;;;;;;1905226;75;21008;-59
2022/06/04 03:43:12;;;;;;;12.15;6.85;;;23.10;77.80;;;;;;1905235;75;21074;-59
2022/06/04 03:45:41;;;;;;;14.15;6.95;;;23.20;77.70;;;;;;1905195;75;21023;-59
2022/06/04 03:48:10;;;;;;;14.43;8.23;;;23.20;77.40;;;;;;1905280;75;21081;-59
2022/06/04 03:50:39;;;;;;;11.18;6.30;;;23.30;77.30;;;;;;1905225;74;21529;-59
2022/06/04 03:53:08;;;;;;;10.58;6.10;;;23.30;77.50;;;;;;1905185;75;21073;-59
2022/06/04 03:55:37;;;;;;;10.03;6.12;;;23.30;76.20;;;;;;1905308;75;21035;-59
2022/06/04 03:58:06;;;;;;;17.48;8.90;;;23.30;76.10;;;;;;1905254;74;20992;-59
2022/06/04 04:00:38;;;;;;;15.48;6.85;;;23.30;75.70;;;;;;1905295;75;21093;-59
2022/06/04 04:03:16;;;;;;;15.05;6.97;;;23.30;75.80;;;;;;1905203;75;21015;-59
2022/06/04 04:05:51;;;;;;;15.15;7.70;;;23.40;75.90;;;;;;1905137;74;21043;-59
2022/06/04 04:08:22;;;;;;;13.95;6.58;;;23.40;75.90;;;;;;1905233;75;21027;-59
2022/06/04 04:10:52;;;;;;;13.48;6.37;;;23.50;76.00;;;;;;1905098;75;21020;-59
2022/06/04 04:13:21;;;;;;;8.58;5.58;;;23.60;75.70;;;;;;1905255;74;21023;-59
2022/06/04 04:15:51;;;;;;;8.80;6.10;;;23.60;75.40;;;;;;1876091;76;21050;-59
2022/06/04 04:18:20;;;;;;;11.80;6.45;;;23.50;75.00;;;;;;1872242;77;21039;-59
2022/06/04 04:20:49;;;;;;;10.70;5.75;;;23.50;75.50;;;;;;1872250;77;21148;-59
2022/06/04 04:23:18;;;;;;;11.25;6.15;;;23.50;75.80;;;;;;1872329;77;21062;-59
2022/06/04 04:25:48;;;;;;;10.98;5.90;;;23.50;75.70;;;;;;1872281;77;21112;-59
2022/06/04 04:28:17;;;;;;;12.60;6.17;;;23.50;75.50;;;;;;1872233;77;21105;-59
2022/06/04 04:30:46;;;;;;;12.68;6.35;;;23.50;75.60;;;;;;1872121;77;21101;-59
2022/06/04 04:33:15;;;;;;;13.90;7.50;;;23.70;75.60;;;;;;1872363;77;21017;-59
2022/06/04 04:35:45;;;;;;;17.70;9.50;;;23.80;75.40;;;;;;1872316;76;21047;-59
2022/06/04 04:38:15;;;;;;;14.70;7.00;;;23.80;75.40;;;;;;1872274;77;21104;-59
2022/06/04 04:40:44;;;;;;;13.68;6.95;;;23.90;75.30;;;;;;1872256;77;21022;-59
2022/06/04 04:43:13;;;;;;;13.25;7.47;;;24.00;75.10;;;;;;1872175;77;21123;-59
2022/06/04 04:45:43;;;;;;;16.90;8.38;;;24.10;75.10;;;;;;1872126;77;21105;-59
2022/06/04 04:48:14;;;;;;;14.83;8.45;;;24.10;74.60;;;;;;1872308;77;21031;-59
2022/06/04 04:50:46;;;;;;;18.82;7.75;;;24.20;74.40;;;;;;1872227;77;21039;-59
2022/06/04 04:53:15;;;;;;;18.75;8.78;;;24.20;74.40;;;;;;1872177;77;21046;-59
2022/06/04 04:55:48;;;;;;;15.00;8.33;;;24.30;74.30;;;;;;1872166;77;21120;-59
2022/06/04 04:58:18;;;;;;;19.70;7.60;;;24.50;74.30;;;;;;1872344;77;21047;-59
2022/06/04 05:00:47;;;;;;;25.97;9.15;;;24.50;74.10;;;;;;1872264;77;21105;-59
2022/06/04 05:03:16;;;;;;;19.40;9.05;;;24.60;73.70;;;;;;1872148;77;21043;-59
2022/06/04 05:05:46;;;;;;;14.75;7.65;;;24.70;73.10;;;;;;1872229;76;21097;-59
2022/06/04 05:08:15;;;;;;;14.85;7.72;;;24.80;72.90;;;;;;1872216;77;21144;-59
2022/06/04 05:10:44;;;;;;;13.78;7.17;;;24.80;73.10;;;;;;1872311;77;21019;-59
2022/06/04 05:13:13;;;;;;;14.15;7.45;;;24.90;72.70;;;;;;1872258;77;21477;-59
2022/06/04 05:15:43;;;;;;;18.37;7.58;;;24.90;72.30;;;;;;1870874;77;21539;-59
2022/06/04 05:18:12;;;;;;;16.27;7.87;;;24.90;72.00;;;;;;1905325;75;21446;-59
2022/06/04 05:20:41;;;;;;;21.17;8.40;;;24.90;72.10;;;;;;1905282;75;21532;-59
2022/06/04 05:23:10;;;;;;;17.62;7.85;;;25.00;72.00;;;;;;1905508;75;21430;-59
2022/06/04 05:25:39;;;;;;;18.98;7.50;;;25.00;71.80;;;;;;1905313;75;21082;-59
2022/06/04 05:28:09;;;;;;;22.37;8.20;;;25.10;71.90;;;;;;1905327;74;21149;-59
2022/06/04 05:30:38;;;;;;;19.35;8.48;;;25.10;71.80;;;;;;1905378;75;21113;-59
2022/06/04 05:33:08;;;;;;;23.42;11.68;;;25.20;71.60;;;;;;1905358;75;21020;-59
2022/06/04 05:35:38;;;;;;;26.42;8.50;;;25.20;70.90;;;;;;1905279;75;21024;-59
2022/06/04 05:38:08;;;;;;;22.13;11.65;;;25.30;70.80;;;;;;1905344;74;21064;-59
2022/06/04 05:40:37;;;;;;;22.00;11.03;;;25.30;70.30;;;;;;1905180;75;21081;-59
2022/06/04 05:43:06;;;;;;;20.40;12.80;;;25.30;70.40;;;;;;1905230;75;21000;-59
2022/06/04 05:45:35;;;;;;;56.75;22.95;;;25.40;70.10;;;;;;1905327;74;21073;-59
2022/06/04 05:48:05;;;;;;;30.62;16.07;;;25.50;69.90;;;;;;1905455;75;21023;-59
2022/06/04 05:50:34;;;;;;;24.87;12.23;;;25.50;69.40;;;;;;1905399;75;21019;-59
2022/06/04 05:53:04;;;;;;;35.25;18.17;;;25.60;69.30;;;;;;1905383;75;21458;-59
2022/06/04 05:55:33;;;;;;;28.12;13.65;;;25.70;68.90;;;;;;1905340;75;21023;-59
2022/06/04 05:58:02;;;;;;;30.10;12.73;;;25.80;68.70;;;;;;1905329;75;20999;-59
2022/06/04 06:00:31;;;;;;;24.20;11.85;;;25.80;68.80;;;;;;1905279;75;21133;-59
2022/06/04 06:03:01;;;;;;;29.80;13.50;;;25.90;68.80;;;;;;1905363;75;21019;-59
2022/06/04 06:05:31;;;;;;;18.73;9.13;;;26.00;68.60;;;;;;1905102;75;21071;-59
2022/06/04 06:08:01;;;;;;;26.02;8.15;;;26.10;68.60;;;;;;1905378;75;21031;-59
2022/06/04 06:10:30;;;;;;;18.90;8.15;;;26.10;68.30;;;;;;1905347;74;21124;-59
2022/06/04 06:12:59;;;;;;;12.60;6.80;;;26.20;68.20;;;;;;1905334;75;21095;-59
2022/06/04 06:15:28;;;;;;;19.48;7.45;;;26.30;68.20;;;;;;1905213;74;21003;-58
2022/06/04 06:17:57;;;;;;;13.83;7.22;;;26.30;67.10;;;;;;1918433;74;21062;-58
2022/06/04 06:20:27;;;;;;;14.95;7.30;;;26.40;66.50;;;;;;1897881;74;21025;-58
2022/06/04 06:22:56;;;;;;;11.28;5.78;;;26.50;67.70;;;;;;1887676;76;21025;-58
2022/06/04 06:25:26;;;;;;;6.33;5.25;;;26.50;67.40;;;;;;1887520;76;21034;-58
2022/06/04 06:27:55;;;;;;;15.03;6.10;;;26.60;68.00;;;;;;1887812;76;21088;-58
2022/06/04 06:30:25;;;;;;;13.30;7.75;;;26.80;67.00;;;;;;1887627;76;21001;-58
2022/06/04 06:32:54;;;;;;;23.65;8.03;;;26.80;66.20;;;;;;1887741;76;21045;-59
2022/06/04 06:35:23;;;;;;;10.25;6.25;;;26.80;65.60;;;;;;1887837;76;21021;-60
2022/06/04 06:37:53;;;;;;;10.00;6.55;;;26.90;65.50;;;;;;1887844;76;21018;-60
2022/06/04 06:40:23;;;;;;;40.33;9.03;;;26.90;65.10;;;;;;1887785;76;21002;-59
2022/06/04 06:42:51;;;;;;;10.93;5.90;;;27.00;64.80;;;;;;1887907;76;21013;-60
2022/06/04 06:45:20;;;;;;;10.75;5.35;;;27.10;63.90;;;;;;1887818;76;21044;-60
2022/06/04 06:47:50;;;;;;;9.53;5.00;;;27.20;64.50;;;;;;1887855;76;20994;-59
2022/06/04 06:50:19;;;;;;;9.43;4.28;;;27.20;64.50;;;;;;1887945;76;21081;-59
2022/06/04 06:52:48;;;;;;;6.20;3.27;;;27.30;64.00;;;;;;1887847;76;21154;-59
2022/06/04 06:55:17;;;;;;;8.43;3.80;;;27.30;63.70;;;;;;1887783;76;21030;-59
2022/06/04 06:57:46;;;;;;;8.05;3.40;;;27.40;63.80;;;;;;1887861;76;21155;-59
2022/06/04 07:00:15;;;;;;;9.30;4.15;;;27.40;63.30;;;;;;1887692;76;21099;-59
2022/06/04 07:02:44;;;;;;;10.63;3.77;;;27.50;63.10;;;;;;1887736;76;21025;-59
2022/06/04 07:05:14;;;;;;;9.68;3.92;;;27.60;63.20;;;;;;1887575;76;21111;-59
2022/06/04 07:07:43;;;;;;;5.85;3.27;;;27.60;63.00;;;;;;1887782;76;21018;-59
2022/06/04 07:10:14;;;;;;;6.53;3.50;;;27.60;63.00;;;;;;1887654;76;21010;-59
2022/06/04 07:12:44;;;;;;;19.48;3.52;;;27.70;62.70;;;;;;1887725;76;21018;-59
2022/06/04 07:15:13;;;;;;;10.43;3.27;;;27.70;61.90;;;;;;1887787;76;21081;-59
2022/06/04 07:17:42;;;;;;;8.20;3.37;;;27.80;61.20;;;;;;1886574;76;21033;-59
2022/06/04 07:20:12;;;;;;;8.93;3.52;;;27.80;61.10;;;;;;1884863;76;21049;-60
2022/06/04 07:22:41;;;;;;;8.30;3.20;;;27.90;60.40;;;;;;1885006;76;21073;-59
2022/06/04 07:25:11;;;;;;;5.87;3.50;;;27.90;58.80;;;;;;1884913;76;21022;-59
2022/06/04 07:27:40;;;;;;;7.60;2.98;;;28.00;59.00;;;;;;1884899;76;21087;-59
2022/06/04 07:30:10;;;;;;;9.38;3.60;;;28.00;58.60;;;;;;1885043;76;21445;-59
2022/06/04 07:32:41;;;;;;;6.12;3.10;;;28.00;58.50;;;;;;1885041;76;21021;-59
2022/06/04 07:35:10;;;;;;;6.17;2.70;;;28.10;58.70;;;;;;1884970;76;21088;-59
2022/06/04 07:37:39;;;;;;;5.62;2.67;;;28.20;59.30;;;;;;1884949;76;21050;-59
2022/06/04 07:40:09;;;;;;;7.45;2.60;;;28.30;58.50;;;;;;1884834;76;21022;-59
2022/06/04 07:42:39;;;;;;;8.48;4.40;;;28.40;57.70;;;;;;1884896;76;21116;-59
2022/06/04 07:45:09;;;;;;;5.78;2.45;;;28.40;56.90;;;;;;1884848;76;21087;-59
2022/06/04 07:47:40;;;;;;;13.95;3.55;;;28.50;56.10;;;;;;1884853;76;21026;-59
2022/06/04 07:50:10;;;;;;;12.03;4.12;;;28.50;56.20;;;;;;1884795;76;21035;-59
2022/06/04 07:52:40;;;;;;;5.67;2.65;;;28.50;55.80;;;;;;1884995;76;21084;-59
2022/06/04 07:55:10;;;;;;;7.95;2.65;;;28.60;55.80;;;;;;1884885;76;21002;-60
2022/06/04 07:57:59;;;;;;;8.18;3.50;;;28.60;55.20;;;;;;1884845;76;21018;-60
2022/06/04 08:00:28;;;;;;;11.93;5.15;;;28.60;55.80;;;;;;1895627;75;21048;-59
2022/06/04 08:02:58;;;;;;;5.72;3.92;;;28.70;56.50;;;;;;1895666;75;21044;-59
2022/06/04 08:05:27;;;;;;;10.10;3.75;;;28.80;55.30;;;;;;1895420;75;21522;-59
2022/06/04 08:07:56;;;;;;;8.75;3.17;;;28.80;54.90;;;;;;1895555;75;21024;-59
2022/06/04 08:10:25;;;;;;;11.57;3.47;;;28.80;55.10;;;;;;1895695;75;21032;-59
2022/06/04 08:12:57;;;;;;;6.75;3.12;;;28.80;54.60;;;;;;1895609;75;21036;-59
2022/06/04 08:15:25;;;;;;;6.47;2.60;;;28.90;54.80;;;;;;1895634;74;21498;-59
2022/06/04 08:17:55;;;;;;;8.88;3.10;;;29.00;54.70;;;;;;1895644;75;21029;-59
2022/06/04 08:20:24;;;;;;;20.57;4.05;;;29.10;54.60;;;;;;1895536;75;21041;-59
2022/06/04 08:22:54;;;;;;;10.38;3.20;;;29.30;54.40;;;;;;1895710;75;21008;-59
2022/06/04 08:25:23;;;;;;;10.53;3.20;;;29.40;54.30;;;;;;1895654;75;21038;-59
2022/06/04 08:27:52;;;;;;;6.72;3.35;;;29.40;54.10;;;;;;1895734;74;21130;-59
2022/06/04 08:30:22;;;;;;;15.83;3.83;;;29.40;54.00;;;;;;1895608;76;21067;-59
2022/06/04 08:32:51;;;;;;;6.62;3.47;;;29.50;54.30;;;;;;1895552;75;21012;-60
2022/06/04 08:35:20;;;;;;;11.70;3.92;;;29.60;54.60;;;;;;1895656;75;21102;-60
2022/06/04 08:37:50;;;;;;;6.15;2.83;;;29.60;54.10;;;;;;1895567;75;21032;-60
2022/06/04 08:40:24;;;;;;;9.03;2.77;;;29.70;53.00;;;;;;1895482;75;21094;-60
2022/06/04 08:43:11;;;;;;;15.25;3.58;;;29.70;53.20;;;;;;1895280;75;21223;-59
2022/06/04 08:45:41;;;;;;;7.25;2.60;;;29.80;53.40;;;;;;1895493;75;21048;-60
2022/06/04 08:48:24;;;;;;;6.83;2.20;;;29.80;52.60;;;;;;1895636;75;21510;-60
2022/06/04 08:50:54;;;;;;;10.98;3.55;;;29.80;52.60;;;;;;1887540;76;21024;-60
2022/06/04 08:53:26;;;;;;;11.60;3.00;;;29.90;52.30;;;;;;1895506;74;21098;-60
2022/06/04 08:59:17;;;;;;;9.20;2.77;;;30.00;52.20;;;;;;1895465;75;21064;-60
2022/06/04 09:01:49;;;;;;;21.20;3.95;;;30.10;52.00;;;;;;1894413;75;21025;-60
2022/06/04 09:04:36;;;;;;;6.97;2.67;;;30.10;52.50;;;;;;1893661;76;21005;-60
2022/06/04 09:07:27;;;;;;;13.05;2.95;;;30.20;52.30;;;;;;1893908;74;21008;-60
2022/06/04 09:10:18;;;;;;;9.88;2.83;;;30.20;52.30;;;;;;1894979;76;21029;-60
2022/06/04 09:13:00;;;;;;;8.20;2.98;;;30.20;52.20;;;;;;1895115;75;21107;-59
2022/06/04 09:15:35;;;;;;;8.25;2.95;;;30.20;52.50;;;;;;1855509;77;21061;-60
2022/06/04 09:18:12;;;;;;;7.45;3.12;;;30.30;52.10;;;;;;1856088;77;21584;-59
2022/06/04 09:20:50;;;;;;;8.78;2.87;;;30.30;52.10;;;;;;1856235;77;21095;-59
2022/06/04 09:23:22;;;;;;;16.07;4.85;;;30.40;52.50;;;;;;1856465;77;21032;-60
2022/06/04 09:26:04;;;;;;;5.60;2.40;;;30.40;52.40;;;;;;1848487;77;21115;-60
2022/06/04 09:28:51;;;;;;;6.05;2.50;;;30.50;52.50;;;;;;1856206;77;21561;-60
2022/06/04 09:31:41;;;;;;;9.20;3.08;;;30.50;52.60;;;;;;1856364;77;21025;-60
2022/06/04 09:34:16;;;;;;;7.60;3.10;;;30.60;52.70;;;;;;1856264;77;21107;-59
2022/06/04 09:36:46;;;;;;;7.72;3.15;;;30.70;51.90;;;;;;1856264;76;21152;-59
2022/06/04 09:39:34;;;;;;;8.53;2.92;;;30.80;52.00;;;;;;1856260;76;21041;-59
2022/06/04 09:42:05;;;;;;;9.70;2.62;;;30.90;51.50;;;;;;1856397;77;21134;-60
2022/06/04 09:44:40;;;;;;;7.70;3.33;;;30.90;51.80;;;;;;1856201;77;21468;-60
2022/06/04 09:47:21;;;;;;;8.88;2.58;;;31.00;52.10;;;;;;1855085;77;21495;-60
2022/06/04 09:50:02;;;;;;;6.50;2.17;;;31.00;51.00;;;;;;1856255;77;21091;-60
2022/06/04 09:52:40;;;;;;;9.53;1.90;;;31.00;50.90;;;;;;1856450;77;21013;-60
2022/06/04 09:55:21;;;;;;;8.08;2.25;;;30.80;50.10;;;;;;1856296;77;21033;-60
2022/06/04 09:57:59;;;;;;;6.85;1.85;;;30.90;51.00;;;;;;1855836;77;21025;-60
2022/06/04 10:00:30;;;;;;;12.07;2.67;;;31.00;50.50;;;;;;1847391;77;21065;-60
2022/06/04 10:03:17;;;;;;;10.55;2.50;;;31.00;50.40;;;;;;1885433;75;21029;-60
2022/06/04 10:06:04;;;;;;;9.15;3.30;;;31.00;49.60;;;;;;1885365;75;21048;-59
2022/06/04 10:11:23;;;;;;;9.15;2.60;;;31.20;49.80;;;;;;1879568;76;21021;-60
2022/06/04 10:13:55;;;;;;;8.68;2.60;;;31.10;49.90;;;;;;1879469;75;21009;-60
2022/06/04 10:16:30;;;;;;;4.42;2.50;;;31.10;49.90;;;;;;1879571;76;21037;-60
2022/06/04 10:19:20;;;;;;;5.65;3.10;;;31.20;49.80;;;;;;1879517;75;21044;-60
2022/06/04 10:21:52;;;;;;;3.47;2.05;;;31.20;49.80;;;;;;1879596;75;21025;-60
2022/06/04 10:24:27;;;;;;;5.92;2.33;;;31.20;49.90;;;;;;1879836;76;21057;-60
2022/06/04 10:27:22;;;;;;;8.05;2.58;;;31.30;50.00;;;;;;1879427;76;21057;-60
2022/06/04 10:29:57;;;;;;;7.12;2.33;;;31.30;50.00;;;;;;1878941;76;21615;-60
2022/06/04 10:32:50;;;;;;;13.88;3.60;;;31.30;49.40;;;;;;1863200;76;21061;-60
2022/06/04 10:35:27;;;;;;;4.92;2.10;;;31.20;49.80;;;;;;1879313;75;21045;-60
2022/06/04 10:38:07;;;;;;;4.15;2.20;;;31.20;50.20;;;;;;1818484;74;21078;-59
2022/06/04 10:40:57;;;;;;;12.00;2.83;;;31.10;50.50;;;;;;1897467;75;21049;-60
2022/06/04 10:43:40;;;;;;;6.62;2.35;;;31.10;50.80;;;;;;1898320;75;21165;-60
2022/06/04 10:46:47;;;;;;;6.60;2.77;;;31.10;50.60;;;;;;1892084;74;21049;-60
2022/06/04 10:49:45;;;;;;;9.38;2.65;;;31.10;50.90;;;;;;1898417;75;21085;-59
2022/06/04 10:52:26;;;;;;;9.98;2.95;;;31.20;51.30;;;;;;1897424;74;21530;-60
2022/06/04 10:55:33;;;;;;;11.05;3.72;;;31.20;51.50;;;;;;1898405;75;21538;-60
2022/06/04 10:58:16;;;;;;;6.95;2.50;;;31.30;50.90;;;;;;1898074;75;21491;-59
2022/06/04 11:00:51;;;;;;;8.20;3.08;;;31.20;51.20;;;;;;1898693;74;21118;-60
2022/06/04 11:03:32;;;;;;;10.58;2.92;;;31.20;50.40;;;;;;1898323;74;21425;-60
2022/06/04 11:06:10;;;;;;;11.22;2.72;;;31.20;50.10;;;;;;1898276;75;21095;-60
2022/06/04 11:08:42;;;;;;;8.68;2.62;;;31.30;50.10;;;;;;1898433;75;21041;-60
2022/06/04 11:11:16;;;;;;;8.83;2.42;;;31.30;49.90;;;;;;1898202;75;21467;-60
2022/06/04 11:13:54;;;;;;;9.53;3.05;;;31.40;50.40;;;;;;1898434;74;21025;-60
2022/06/04 11:16:41;;;;;;;8.45;2.12;;;31.50;50.10;;;;;;1898307;75;21160;-60
2022/06/04 11:19:43;;;;;;;8.73;2.80;;;31.50;49.90;;;;;;1898260;74;21025;-59
2022/06/04 11:22:18;;;;;;;7.40;2.70;;;31.50;50.20;;;;;;1865587;75;21045;-60
2022/06/04 11:24:56;;;;;;;12.93;2.60;;;31.60;50.50;;;;;;1865206;76;21064;-60
2022/06/04 11:27:27;;;;;;;10.35;3.02;;;31.60;50.80;;;;;;1884280;75;21010;-59
2022/06/04 11:29:58;;;;;;;7.22;3.02;;;31.70;50.50;;;;;;1894153;74;21083;-60
2022/06/04 11:32:36;;;;;;;12.10;2.52;;;31.70;50.30;;;;;;1898299;74;21087;-60
2022/06/04 11:35:08;;;;;;;4.70;2.65;;;31.70;50.90;;;;;;1898301;74;21472;-60
2022/06/04 11:37:43;;;;;;;8.88;2.50;;;31.70;50.80;;;;;;1920649;71;21042;-60
2022/06/04 11:40:27;;;;;;;9.28;2.77;;;31.70;50.70;;;;;;1937753;74;21034;-60
2022/06/04 11:43:17;;;;;;;11.75;2.58;;;31.70;50.60;;;;;;1937603;74;21018;-60
2022/06/04 11:46:05;;;;;;;8.25;2.70;;;31.70;50.90;;;;;;1937526;73;21043;-60
2022/06/04 11:49:05;;;;;;;15.13;2.72;;;31.60;50.80;;;;;;1937675;74;21120;-60
2022/06/04 11:51:37;;;;;;;14.90;2.80;;;31.70;50.80;;;;;;1937834;73;21090;-60
2022/06/04 11:54:25;;;;;;;9.00;2.62;;;31.70;50.70;;;;;;1936982;74;20999;-59
2022/06/04 11:57:16;;;;;;;4.97;2.83;;;31.70;50.40;;;;;;1937847;73;21027;-60
2022/06/04 11:59:48;;;;;;;11.43;3.30;;;31.70;49.90;;;;;;1937860;73;21039;-60
2022/06/04 12:02:24;;;;;;;5.00;2.12;;;31.70;49.60;;;;;;1937594;74;21047;-60
2022/06/04 12:05:02;;;;;;;8.28;3.08;;;31.70;49.30;;;;;;1937906;74;21098;-60
2022/06/04 12:07:43;;;;;;;13.72;2.98;;;31.60;49.40;;;;;;1937861;73;21018;-60
2022/06/04 12:10:24;;;;;;;12.20;2.33;;;31.70;49.40;;;;;;1938095;74;21519;-60
2022/06/04 12:13:05;;;;;;;6.85;2.22;;;31.70;49.00;;;;;;1938024;73;21073;-60
2022/06/04 12:15:43;;;;;;;12.68;2.75;;;31.60;49.30;;;;;;1936070;74;21023;-58
2022/06/04 12:18:21;;;;;;;11.08;2.45;;;31.70;49.50;;;;;;1935942;73;21485;-59
2022/06/04 12:26:41;;;;;;;8.70;2.45;;;31.90;49.30;;;;;;1937855;74;21035;-59
2022/06/04 12:29:31;;;;;;;5.30;1.85;;;32.00;48.60;;;;;;1938024;74;21117;-59
2022/06/04 12:32:06;;;;;;;15.40;2.47;;;32.00;48.50;;;;;;1937917;74;21018;-59
2022/06/04 12:34:37;;;;;;;4.33;1.90;;;31.90;48.90;;;;;;1937824;74;21534;-60
2022/06/04 12:37:08;;;;;;;8.45;2.17;;;31.90;49.80;;;;;;1941301;73;21022;-60
2022/06/04 12:39:40;;;;;;;10.40;2.75;;;31.90;49.20;;;;;;1958574;73;21087;-60
2022/06/04 12:42:20;;;;;;;7.20;2.30;;;32.00;48.90;;;;;;1961144;73;21026;-60
2022/06/04 12:45:07;;;;;;;21.48;2.42;;;32.00;48.50;;;;;;1961054;73;21088;-60
2022/06/04 12:47:38;;;;;;;12.47;3.55;;;32.00;48.50;;;;;;1956278;73;21042;-60
2022/06/04 12:50:22;;;;;;;13.72;2.65;;;32.00;49.00;;;;;;1961205;72;21038;-60
2022/06/04 12:53:06;;;;;;;6.20;2.50;;;32.00;48.70;;;;;;1961449;73;21095;-60
2022/06/04 12:55:41;;;;;;;9.68;2.95;;;32.00;48.70;;;;;;1959911;72;21088;-60
2022/06/04 12:58:43;;;;;;;6.12;2.15;;;32.10;48.80;;;;;;1960152;72;21026;-60
2022/06/04 13:01:21;;;;;;;11.95;2.33;;;32.00;49.00;;;;;;1960216;73;21096;-60
2022/06/04 13:04:13;;;;;;;7.78;2.60;;;32.00;48.80;;;;;;1961114;73;21022;-60
2022/06/04 13:06:51;;;;;;;9.40;3.35;;;32.10;49.30;;;;;;1960973;73;21042;-60
2022/06/04 13:09:45;;;;;;;5.05;2.15;;;32.00;48.60;;;;;;1961187;73;21522;-68
2022/06/04 13:12:33;;;;;;;8.20;2.17;;;32.00;48.10;;;;;;1961390;72;21124;-60
2022/06/04 13:15:38;;;;;;;15.03;3.02;;;32.00;48.20;;;;;;1939546;73;21429;-60
2022/06/04 13:18:19;;;;;;;7.47;3.33;;;32.00;48.50;;;;;;1961016;73;21030;-60
2022/06/04 13:20:56;;;;;;;7.05;2.62;;;32.10;48.30;;;;;;1961121;73;21096;-60
2022/06/04 13:23:27;;;;;;;6.75;2.05;;;32.10;48.30;;;;;;1960828;72;21135;-60
2022/06/04 13:26:32;;;;;;;12.15;2.77;;;32.10;48.30;;;;;;1960972;73;20986;-60
2022/06/04 13:31:55;;;;;;;8.18;2.33;;;32.10;48.30;;;;;;1959894;73;21574;-60
2022/06/04 13:34:26;;;;;;;11.45;2.52;;;32.20;47.70;;;;;;1959946;73;21006;-60
2022/06/04 13:37:04;;;;;;;5.12;2.42;;;32.20;47.10;;;;;;1959939;73;21018;-60
2022/06/04 13:39:34;;;;;;;7.35;2.52;;;32.20;47.00;;;;;;1959949;73;21488;-59